Time;durP1;ratioP1;P1;durP2;ratioP2;P2;SDS_P1;SDS_P2;PMS_P1;PMS_P2;Temp;Humidity;BMP_temperature;BMP_pressure;BME280_temperature;BME280_humidity;BME280_pressure;Samples;Min_cycle;Max_cycle;Signal;HPM_P1;HPM_P2
2023/08/14 00:00:57;;;;;;;;;;;;;;;27.27;37.34;100558.50;5054659;28;19916;-63
2023/08/14 00:03:23;;;;;;;;;;;;;;;27.29;37.13;100550.75;5082188;28;19920;-62
2023/08/14 00:05:48;;;;;;;;;;;;;;;27.28;37.06;100558.19;5094676;28;19912;-63
2023/08/14 00:08:13;;;;;;;;;;;;;;;27.39;36.76;100556.88;5094778;28;19919;-62
2023/08/14 00:10:39;;;;;;;;;;;;;;;27.42;36.51;100550.75;5094636;28;19912;-63
2023/08/14 00:13:04;;;;;;;;;;;;;;;27.32;37.14;100547.38;5083147;28;19923;-63
2023/08/14 00:15:29;;;;;;;;;;;;;;;27.26;37.40;100554.91;5074227;28;19917;-63
2023/08/14 00:17:54;;;;;;;;;;;;;;;27.28;37.11;100560.94;5074205;28;19921;-63
2023/08/14 00:20:20;;;;;;;;;;;;;;;27.29;37.01;100559.84;5074169;28;19916;-63
2023/08/14 00:22:45;;;;;;;;;;;;;;;27.24;37.13;100559.88;5074248;28;19918;-63
2023/08/14 00:25:10;;;;;;;;;;;;;;;27.13;37.41;100553.72;5074142;28;19965;-63
2023/08/14 00:27:36;;;;;;;;;;;;;;;27.07;37.74;100556.91;5074282;28;19913;-63
2023/08/14 00:30:01;;;;;;;;;;;;;;;27.05;37.82;100551.69;5074115;28;19993;-62
2023/08/14 00:32:27;;;;;;;;;;;;;;;26.98;37.79;100554.00;5074102;28;19924;-63
2023/08/14 00:34:52;;;;;;;;;;;;;;;27.02;37.61;100544.00;5074104;28;20401;-63
2023/08/14 00:37:17;;;;;;;;;;;;;;;26.99;37.95;100547.38;5074043;28;19919;-63
2023/08/14 00:39:42;;;;;;;;;;;;;;;26.91;38.09;100557.13;5073683;28;19913;-64
2023/08/14 00:42:09;;;;;;;;;;;;;;;26.90;37.96;100554.72;5073915;28;19913;-63
2023/08/14 00:44:34;;;;;;;;;;;;;;;26.91;37.79;100550.81;5073839;28;19912;-64
2023/08/14 00:47:00;;;;;;;;;;;;;;;27.05;37.58;100557.19;5073712;28;19916;-63
2023/08/14 00:49:25;;;;;;;;;;;;;;;27.00;37.76;100547.06;5073578;28;19913;-61
2023/08/14 00:51:51;;;;;;;;;;;;;;;27.01;37.50;100540.44;5073782;28;19957;-63
2023/08/14 00:54:16;;;;;;;;;;;;;;;27.03;37.83;100553.94;5073041;28;20373;-63
2023/08/14 00:56:41;;;;;;;;;;;;;;;26.87;38.13;100547.03;5073498;28;19954;-63
2023/08/14 00:59:08;;;;;;;;;;;;;;;26.92;37.97;100549.72;5073337;28;19924;-63
2023/08/14 01:01:34;;;;;;;;;;;;;;;27.04;37.79;100556.38;5077065;28;19912;-63
2023/08/14 01:03:59;;;;;;;;;;;;;;;27.01;38.00;100550.66;5093256;28;19934;-63
2023/08/14 01:06:24;;;;;;;;;;;;;;;27.06;37.60;100553.34;5093569;28;19966;-63
2023/08/14 01:08:50;;;;;;;;;;;;;;;27.01;37.91;100556.16;5093301;28;20007;-63
2023/08/14 01:11:51;;;;;;;;;;;;;;;26.92;37.92;100556.03;5093780;28;19922;-64
2023/08/14 01:14:32;;;;;;;;;;;;;;;27.00;37.73;100560.03;4991726;28;19964;-64
2023/08/14 01:17:03;;;;;;;;;;;;;;;27.18;37.63;100563.88;5083292;28;19911;-64
2023/08/14 01:19:36;;;;;;;;;;;;;;;27.10;37.84;100567.31;5093812;28;19916;-63
2023/08/14 01:22:03;;;;;;;;;;;;;;;27.15;37.24;100567.22;5093627;28;20575;-63
2023/08/14 01:24:45;;;;;;;;;;;;;;;27.27;37.33;100575.88;5093670;28;19912;-63
2023/08/14 01:27:11;;;;;;;;;;;;;;;27.34;37.21;100565.25;5093471;28;20373;-63
2023/08/14 01:29:36;;;;;;;;;;;;;;;27.30;37.28;100566.16;5075068;28;19923;-63
2023/08/14 01:32:01;;;;;;;;;;;;;;;27.20;37.36;100567.13;5073170;28;19916;-64
2023/08/14 01:34:27;;;;;;;;;;;;;;;26.97;37.93;100555.94;5073031;28;19912;-63
2023/08/14 01:37:06;;;;;;;;;;;;;;;26.87;37.82;100555.31;5073451;28;19939;-64
2023/08/14 01:39:40;;;;;;;;;;;;;;;27.13;37.66;100559.25;5073026;28;19917;-63
2023/08/14 01:42:22;;;;;;;;;;;;;;;27.25;37.26;100556.03;5073028;28;20007;-64
2023/08/14 01:44:49;;;;;;;;;;;;;;;27.27;37.31;100558.50;5073142;28;19913;-62
2023/08/14 01:47:16;;;;;;;;;;;;;;;26.83;38.39;100555.09;5072704;28;20325;-62
2023/08/14 01:49:42;;;;;;;;;;;;;;;26.85;37.78;100561.09;5072708;28;19912;-62
2023/08/14 01:52:08;;;;;;;;;;;;;;;26.74;38.39;100559.63;5072752;28;19939;-62
2023/08/14 01:54:33;;;;;;;;;;;;;;;26.60;38.90;100554.91;5071990;28;19913;-62
2023/08/14 01:56:58;;;;;;;;;;;;;;;26.62;38.67;100552.66;5072731;28;19913;-62
2023/08/14 01:59:41;;;;;;;;;;;;;;;26.58;38.53;100546.09;5072489;28;20353;-62
2023/08/14 02:02:06;;;;;;;;;;;;;;;26.75;38.43;100542.81;5079902;28;19916;-62
2023/08/14 02:04:32;;;;;;;;;;;;;;;26.86;37.95;100546.22;5092404;28;20022;-60
2023/08/14 02:06:57;;;;;;;;;;;;;;;26.78;38.35;100549.66;5092842;28;19920;-62
2023/08/14 02:09:22;;;;;;;;;;;;;;;26.81;38.65;100541.59;5092684;28;20387;-62
2023/08/14 02:11:48;;;;;;;;;;;;;;;26.94;37.65;100552.97;5092706;28;19919;-62
2023/08/14 02:14:13;;;;;;;;;;;;;;;26.89;37.82;100542.03;5077876;28;20250;-62
2023/08/14 02:16:38;;;;;;;;;;;;;;;27.00;38.04;100549.00;5073000;28;19916;-61
2023/08/14 02:19:03;;;;;;;;;;;;;;;27.01;37.91;100553.41;5072596;28;20373;-62
2023/08/14 02:21:29;;;;;;;;;;;;;;;27.03;37.75;100554.72;5076596;28;19951;-62
2023/08/14 02:23:54;;;;;;;;;;;;;;;26.99;37.76;100552.91;5076689;28;19916;-62
2023/08/14 02:26:19;;;;;;;;;;;;;;;26.94;37.72;100553.78;5076169;28;20372;-61
2023/08/14 02:28:44;;;;;;;;;;;;;;;26.88;38.31;100546.75;5076653;28;19917;-62
2023/08/14 02:31:10;;;;;;;;;;;;;;;26.99;38.01;100556.47;5076657;28;19923;-61
2023/08/14 02:33:35;;;;;;;;;;;;;;;26.92;38.10;100546.97;5076214;28;20444;-62
2023/08/14 02:36:01;;;;;;;;;;;;;;;26.63;38.69;100556.22;5075896;28;20368;-61
2023/08/14 02:38:26;;;;;;;;;;;;;;;26.58;38.89;100551.59;5075826;28;19954;-62
2023/08/14 02:40:51;;;;;;;;;;;;;;;26.67;38.69;100550.94;5075881;28;19919;-62
2023/08/14 02:43:16;;;;;;;;;;;;;;;26.80;38.25;100551.00;5075963;28;19913;-62
2023/08/14 02:45:42;;;;;;;;;;;;;;;26.88;38.31;100551.44;5075740;28;19913;-62
2023/08/14 02:48:07;;;;;;;;;;;;;;;26.91;38.03;100550.81;5075701;28;19916;-62
2023/08/14 02:50:33;;;;;;;;;;;;;;;26.99;37.71;100558.41;5075840;28;20335;-62
2023/08/14 02:52:58;;;;;;;;;;;;;;;26.81;38.05;100563.66;5057885;28;19912;-62
2023/08/14 02:55:25;;;;;;;;;;;;;;;26.84;38.04;100560.31;5075272;28;19999;-62
2023/08/14 02:57:50;;;;;;;;;;;;;;;26.84;38.06;100565.81;5076244;28;19981;-62
2023/08/14 03:00:15;;;;;;;;;;;;;;;26.83;38.17;100564.16;5075755;28;20357;-62
2023/08/14 03:02:40;;;;;;;;;;;;;;;26.80;38.12;100563.94;5088478;28;19924;-62
2023/08/14 03:05:06;;;;;;;;;;;;;;;26.75;38.25;100564.03;5095798;28;19912;-61
2023/08/14 03:07:31;;;;;;;;;;;;;;;26.65;38.28;100567.75;5095757;28;19920;-62
2023/08/14 03:09:56;;;;;;;;;;;;;;;26.60;38.29;100565.91;5095977;28;19994;-62
2023/08/14 03:12:22;;;;;;;;;;;;;;;26.50;38.73;100570.72;5095964;28;20360;-62
2023/08/14 03:14:47;;;;;;;;;;;;;;;26.37;38.80;100572.28;5095693;28;20369;-62
2023/08/14 03:17:12;;;;;;;;;;;;;;;26.47;38.97;100577.66;5095569;28;19951;-62
2023/08/14 03:19:37;;;;;;;;;;;;;;;26.45;38.86;100577.13;5095738;28;19919;-62
2023/08/14 03:22:03;;;;;;;;;;;;;;;26.56;38.53;100586.88;5077769;28;19928;-62
2023/08/14 03:24:28;;;;;;;;;;;;;;;26.60;38.65;100592.66;5075084;28;20015;-62
2023/08/14 03:26:55;;;;;;;;;;;;;;;26.60;38.69;100585.19;5075041;28;20360;-62
2023/08/14 03:29:21;;;;;;;;;;;;;;;26.43;38.83;100587.63;5037125;28;19960;-62
2023/08/14 03:31:46;;;;;;;;;;;;;;;26.44;38.98;100584.56;5054769;28;19939;-62
2023/08/14 03:34:11;;;;;;;;;;;;;;;26.35;39.11;100583.59;5055314;28;19919;-62
2023/08/14 03:36:37;;;;;;;;;;;;;;;26.34;39.19;100587.47;5054441;28;19913;-62
2023/08/14 03:39:02;;;;;;;;;;;;;;;26.44;38.92;100586.50;5054582;28;19921;-62
2023/08/14 03:41:27;;;;;;;;;;;;;;;26.34;39.26;100583.91;5054664;28;19920;-62
2023/08/14 03:43:53;;;;;;;;;;;;;;;26.55;38.65;100588.00;5054574;28;20336;-62
2023/08/14 03:46:18;;;;;;;;;;;;;;;26.27;39.29;100587.81;5054457;28;19917;-62
2023/08/14 03:48:43;;;;;;;;;;;;;;;26.38;39.30;100583.00;5054466;28;19986;-62
2023/08/14 03:51:09;;;;;;;;;;;;;;;26.52;38.73;100583.06;5054453;28;19913;-62
2023/08/14 03:53:34;;;;;;;;;;;;;;;26.47;39.07;100583.16;5054845;28;19919;-63
2023/08/14 03:56:00;;;;;;;;;;;;;;;26.40;38.90;100579.97;5053968;28;19916;-63
2023/08/14 03:58:25;;;;;;;;;;;;;;;26.49;38.69;100572.66;5054458;28;19920;-63
2023/08/14 04:00:51;;;;;;;;;;;;;;;26.59;38.58;100578.00;5054177;28;20285;-63
2023/08/14 04:03:16;;;;;;;;;;;;;;;26.57;38.51;100587.69;5089539;28;19931;-62
2023/08/14 04:05:41;;;;;;;;;;;;;;;26.55;38.60;100587.19;5094386;28;19913;-63
2023/08/14 04:08:07;;;;;;;;;;;;;;;26.26;39.02;100579.84;5094246;28;19916;-63
2023/08/14 04:10:33;;;;;;;;;;;;;;;26.41;39.00;100579.66;5094391;28;19916;-63
2023/08/14 04:12:58;;;;;;;;;;;;;;;26.50;38.77;100578.97;5094531;28;19912;-64
2023/08/14 04:15:24;;;;;;;;;;;;;;;26.73;38.30;100580.88;5094667;28;20353;-63
2023/08/14 04:17:49;;;;;;;;;;;;;;;26.88;37.86;100579.00;5080595;28;19923;-62
2023/08/14 04:20:14;;;;;;;;;;;;;;;26.74;38.14;100578.94;5074390;28;19912;-62
2023/08/14 04:22:40;;;;;;;;;;;;;;;26.61;38.62;100580.50;5074196;28;20299;-62
2023/08/14 04:25:05;;;;;;;;;;;;;;;26.67;38.45;100578.47;5073258;28;19917;-62
2023/08/14 04:27:31;;;;;;;;;;;;;;;26.75;38.27;100575.88;5073616;28;20395;-62
2023/08/14 04:29:56;;;;;;;;;;;;;;;26.75;38.37;100575.88;5073812;28;20384;-63
2023/08/14 04:32:21;;;;;;;;;;;;;;;26.81;38.02;100573.84;5073761;28;19940;-63
2023/08/14 04:34:47;;;;;;;;;;;;;;;26.65;38.34;100576.88;5073369;28;19916;-63
2023/08/14 04:37:12;;;;;;;;;;;;;;;26.70;38.66;100564.94;5073668;28;19912;-63
2023/08/14 04:39:37;;;;;;;;;;;;;;;26.54;38.83;100585.53;5073178;28;20284;-63
2023/08/14 04:42:03;;;;;;;;;;;;;;;26.48;38.57;100575.72;5073441;28;19938;-62
2023/08/14 04:44:28;;;;;;;;;;;;;;;26.26;38.98;100574.34;5073845;28;19916;-62
2023/08/14 04:46:53;;;;;;;;;;;;;;;26.46;38.46;100568.56;5074088;28;19912;-62
2023/08/14 04:49:18;;;;;;;;;;;;;;;26.35;38.84;100575.31;5055712;28;19939;-62
2023/08/14 04:51:44;;;;;;;;;;;;;;;26.43;38.53;100576.63;5073696;28;19995;-62
2023/08/14 04:54:09;;;;;;;;;;;;;;;26.59;38.31;100583.50;5072824;28;19912;-62
2023/08/14 04:56:35;;;;;;;;;;;;;;;26.87;37.92;100574.59;5073700;28;19912;-62
2023/08/14 04:59:00;;;;;;;;;;;;;;;26.80;37.98;100583.22;5055629;28;20276;-62
2023/08/14 05:01:25;;;;;;;;;;;;;;;26.75;37.94;100570.38;5075768;28;19912;-63
2023/08/14 05:03:51;;;;;;;;;;;;;;;26.50;38.36;100565.22;5093510;28;20396;-62
2023/08/14 05:06:16;;;;;;;;;;;;;;;26.45;38.38;100575.19;5093594;28;19925;-63
2023/08/14 05:08:41;;;;;;;;;;;;;;;26.55;38.11;100570.66;5075303;28;19923;-62
2023/08/14 05:11:06;;;;;;;;;;;;;;;26.45;38.19;100577.13;5093641;28;20380;-62
2023/08/14 05:13:32;;;;;;;;;;;;;;;26.30;38.50;100567.16;5084210;28;19920;-63
2023/08/14 05:15:57;;;;;;;;;;;;;;;26.38;38.33;100572.00;5073497;28;19960;-63
2023/08/14 05:18:23;;;;;;;;;;;;;;;26.44;38.02;100573.53;5073280;28;19943;-63
2023/08/14 05:20:48;;;;;;;;;;;;;;;26.18;38.36;100577.78;5073397;28;19966;-63
2023/08/14 05:23:14;;;;;;;;;;;;;;;26.16;38.44;100578.06;5073204;28;19912;-63
2023/08/14 05:25:43;;;;;;;;;;;;;;;26.26;38.61;100577.94;5073343;28;19916;-63
2023/08/14 05:28:09;;;;;;;;;;;;;;;26.38;38.11;100580.25;5073218;28;19917;-63
2023/08/14 05:30:34;;;;;;;;;;;;;;;26.56;37.67;100589.63;5073019;28;19938;-62
2023/08/14 05:32:59;;;;;;;;;;;;;;;26.55;37.70;100595.44;5055004;28;19919;-63
2023/08/14 05:35:25;;;;;;;;;;;;;;;26.51;37.84;100586.97;5072795;28;20373;-63
2023/08/14 05:37:55;;;;;;;;;;;;;;;26.57;37.68;100590.44;5073340;28;19916;-63
2023/08/14 05:40:21;;;;;;;;;;;;;;;26.61;37.55;100592.31;5054955;28;20046;-63
2023/08/14 05:43:06;;;;;;;;;;;;;;;26.40;38.02;100594.53;5055164;28;20003;-63
2023/08/14 05:45:49;;;;;;;;;;;;;;;26.43;38.48;100591.19;5072521;28;19920;-63
2023/08/14 05:48:14;;;;;;;;;;;;;;;26.43;38.19;100596.72;5072739;28;19942;-63
2023/08/14 05:50:40;;;;;;;;;;;;;;;26.34;38.25;100608.69;5072741;28;19916;-63
2023/08/14 05:53:07;;;;;;;;;;;;;;;26.28;38.22;100605.19;5086412;28;19916;-63
2023/08/14 05:55:36;;;;;;;;;;;;;;;26.14;38.58;100610.59;5071989;28;19912;-63
2023/08/14 05:58:02;;;;;;;;;;;;;;;26.27;38.37;100609.03;5072727;28;19912;-62
2023/08/14 06:00:28;;;;;;;;;;;;;;;26.43;37.95;100612.41;5073018;28;20266;-63
2023/08/14 06:02:53;;;;;;;;;;;;;;;26.45;38.00;100612.94;5087178;28;19927;-63
2023/08/14 06:05:19;;;;;;;;;;;;;;;26.31;38.27;100614.78;5092822;28;20016;-64
2023/08/14 06:07:47;;;;;;;;;;;;;;;26.57;37.81;100602.28;5092898;28;19923;-63
2023/08/14 06:10:12;;;;;;;;;;;;;;;26.71;37.54;100612.59;5079807;28;19963;-62
2023/08/14 06:12:38;;;;;;;;;;;;;;;26.88;37.28;100606.56;5072394;28;19959;-63
2023/08/14 06:15:03;;;;;;;;;;;;;;;27.00;37.13;100620.69;5072409;28;19923;-63
2023/08/14 06:17:29;;;;;;;;;;;;;;;26.77;37.16;100617.72;5072672;28;19920;-62
2023/08/14 06:19:54;;;;;;;;;;;;;;;26.79;37.34;100622.94;5072893;28;19912;-62
2023/08/14 06:22:19;;;;;;;;;;;;;;;26.68;37.61;100614.00;5072783;28;20011;-62
2023/08/14 06:24:45;;;;;;;;;;;;;;;26.82;37.67;100620.41;5072386;28;19999;-62
2023/08/14 06:27:10;;;;;;;;;;;;;;;26.80;37.53;100628.16;5072633;28;20485;-63
2023/08/14 06:29:36;;;;;;;;;;;;;;;27.06;37.24;100624.16;5072690;28;19916;-62
2023/08/14 06:32:01;;;;;;;;;;;;;;;27.19;37.03;100628.91;5059012;28;19917;-62
2023/08/14 06:34:27;;;;;;;;;;;;;;;27.25;36.84;100636.00;5071515;28;19961;-62
2023/08/14 06:36:52;;;;;;;;;;;;;;;27.31;37.01;100632.03;5072098;28;19920;-63
2023/08/14 06:39:18;;;;;;;;;;;;;;;27.35;36.81;100629.50;5053809;28;20312;-62
2023/08/14 06:41:44;;;;;;;;;;;;;;;27.60;36.23;100636.53;5072139;28;20306;-63
2023/08/14 06:44:10;;;;;;;;;;;;;;;27.67;35.92;100634.16;5072424;28;20014;-62
2023/08/14 06:46:35;;;;;;;;;;;;;;;27.66;36.45;100632.53;5072225;28;19919;-64
2023/08/14 06:49:00;;;;;;;;;;;;;;;27.71;35.67;100637.97;5071997;28;19924;-63
2023/08/14 06:51:26;;;;;;;;;;;;;;;27.88;35.60;100642.88;5072051;28;19995;-62
2023/08/14 06:53:51;;;;;;;;;;;;;;;27.89;35.70;100641.78;5071641;28;19912;-63
2023/08/14 06:56:16;;;;;;;;;;;;;;;27.88;35.22;100631.84;5071762;28;19913;-63
2023/08/14 06:58:42;;;;;;;;;;;;;;;28.02;35.55;100629.09;5053804;28;19966;-63
2023/08/14 07:01:07;;;;;;;;;;;;;;;27.86;35.56;100638.78;5072259;28;19960;-62
2023/08/14 07:03:33;;;;;;;;;;;;;;;28.07;35.19;100637.28;5052028;28;20332;-62
2023/08/14 07:05:58;;;;;;;;;;;;;;;28.09;35.13;100653.56;5061666;28;20292;-62
2023/08/14 07:08:24;;;;;;;;;;;;;;;28.04;34.46;100665.50;5075578;28;19916;-62
2023/08/14 07:10:49;;;;;;;;;;;;;;;27.80;34.92;100647.19;5075881;28;19947;-62
2023/08/14 07:13:14;;;;;;;;;;;;;;;27.76;34.98;100659.91;5075795;28;19913;-62
2023/08/14 07:15:41;;;;;;;;;;;;;;;27.79;34.39;100664.84;5075862;28;19982;-62
2023/08/14 07:18:07;;;;;;;;;;;;;;;27.86;34.45;100663.63;5075524;28;19917;-62
2023/08/14 07:20:33;;;;;;;;;;;;;;;28.09;34.45;100673.69;5075356;28;19920;-62
2023/08/14 07:22:59;;;;;;;;;;;;;;;28.24;33.94;100666.22;5062787;28;19919;-61
2023/08/14 07:25:27;;;;;;;;;;;;;;;28.36;33.76;100669.28;5075263;28;19924;-62
2023/08/14 07:27:53;;;;;;;;;;;;;;;28.12;34.05;100672.25;5075246;28;19917;-62
2023/08/14 07:30:18;;;;;;;;;;;;;;;28.15;33.96;100683.50;5075174;28;19913;-62
2023/08/14 07:32:44;;;;;;;;;;;;;;;28.33;34.89;100678.19;5056595;28;19936;-62
2023/08/14 07:35:09;;;;;;;;;;;;;;;28.19;34.14;100673.50;5055044;28;19916;-62
2023/08/14 07:37:34;;;;;;;;;;;;;;;27.80;34.36;100677.53;5054981;28;20445;-62
2023/08/14 07:40:00;;;;;;;;;;;;;;;27.90;34.57;100681.25;5055297;28;19923;-62
2023/08/14 07:42:25;;;;;;;;;;;;;;;27.96;34.60;100680.84;5055261;28;20346;-62
2023/08/14 07:44:51;;;;;;;;;;;;;;;28.07;34.67;100687.00;5055105;28;19952;-62
2023/08/14 07:47:16;;;;;;;;;;;;;;;28.47;34.58;100679.00;5055197;28;19923;-62
2023/08/14 07:49:41;;;;;;;;;;;;;;;28.53;34.07;100666.72;5055141;28;19924;-62
2023/08/14 07:52:07;;;;;;;;;;;;;;;28.59;33.83;100666.63;5055033;28;19956;-62
2023/08/14 07:54:32;;;;;;;;;;;;;;;28.82;34.23;100671.06;5054486;28;19913;-62
2023/08/14 07:56:57;;;;;;;;;;;;;;;29.21;33.96;100677.91;5054735;28;20325;-62
2023/08/14 07:59:23;;;;;;;;;;;;;;;29.28;33.43;100669.19;5055088;28;20289;-62
2023/08/14 08:01:48;;;;;;;;;;;;;;;29.19;33.04;100666.34;5060455;28;19912;-63
2023/08/14 08:04:14;;;;;;;;;;;;;;;29.07;33.13;100675.19;5090642;28;19962;-63
2023/08/14 08:06:39;;;;;;;;;;;;;;;29.01;34.07;100673.69;5076826;28;19968;-62
2023/08/14 08:09:05;;;;;;;;;;;;;;;29.09;33.01;100680.41;5094753;28;19923;-63
2023/08/14 08:11:30;;;;;;;;;;;;;;;28.92;33.50;100683.84;5094632;28;19923;-62
2023/08/14 08:13:55;;;;;;;;;;;;;;;28.60;33.56;100674.59;5094659;28;19919;-63
2023/08/14 08:16:20;;;;;;;;;;;;;;;28.55;33.63;100667.25;5094579;28;19912;-63
2023/08/14 08:18:46;;;;;;;;;;;;;;;28.60;33.65;100663.53;5093711;28;19919;-63
2023/08/14 08:21:11;;;;;;;;;;;;;;;28.54;33.52;100662.81;5087862;28;19969;-63
2023/08/14 08:23:36;;;;;;;;;;;;;;;28.53;33.91;100674.22;5074217;28;19919;-62
2023/08/14 08:26:02;;;;;;;;;;;;;;;28.53;33.96;100666.72;5074450;28;19920;-63
2023/08/14 08:28:27;;;;;;;;;;;;;;;28.34;33.96;100679.81;5074341;28;19917;-62
2023/08/14 08:30:53;;;;;;;;;;;;;;;28.57;33.96;100664.97;5074207;28;19976;-63
2023/08/14 08:33:18;;;;;;;;;;;;;;;28.80;33.73;100686.31;5074045;28;20369;-63
2023/08/14 08:35:44;;;;;;;;;;;;;;;29.01;33.62;100681.97;5074018;28;19913;-63
2023/08/14 08:38:09;;;;;;;;;;;;;;;29.08;33.35;100685.09;5073704;28;19920;-63
2023/08/14 08:40:35;;;;;;;;;;;;;;;29.14;32.90;100688.59;5055701;28;19912;-63
2023/08/14 08:43:02;;;;;;;;;;;;;;;28.87;33.10;100700.53;5073967;28;19917;-63
2023/08/14 08:45:31;;;;;;;;;;;;;;;29.14;33.22;100691.34;5056535;28;19916;-62
2023/08/14 08:47:59;;;;;;;;;;;;;;;29.23;32.79;100686.69;5073813;28;19983;-63
2023/08/14 08:50:25;;;;;;;;;;;;;;;29.40;32.68;100697.09;5073853;28;19912;-63
2023/08/14 08:52:51;;;;;;;;;;;;;;;29.22;32.98;100689.81;5073557;28;20324;-63
2023/08/14 08:55:16;;;;;;;;;;;;;;;29.29;32.81;100690.16;5072974;28;19916;-63
2023/08/14 08:57:42;;;;;;;;;;;;;;;29.19;32.20;100693.19;5075173;28;19932;-63
2023/08/14 09:00:08;;;;;;;;;;;;;;;29.15;32.31;100688.28;5093643;28;19995;-63
2023/08/14 09:02:33;;;;;;;;;;;;;;;29.36;32.39;100687.78;5093203;28;20050;-63
2023/08/14 09:05:00;;;;;;;;;;;;;;;29.36;32.04;100686.97;5093651;28;19923;-63
2023/08/14 09:07:25;;;;;;;;;;;;;;;29.19;32.58;100694.00;5093214;28;19947;-63
2023/08/14 09:09:50;;;;;;;;;;;;;;;29.38;32.34;100688.28;5093458;28;20316;-63
2023/08/14 09:12:16;;;;;;;;;;;;;;;29.59;31.68;100685.81;5093064;28;20011;-63
2023/08/14 09:14:44;;;;;;;;;;;;;;;29.66;31.59;100686.19;5093377;28;19947;-63
2023/08/14 09:17:11;;;;;;;;;;;;;;;30.05;31.57;100681.00;5093405;28;20367;-63
2023/08/14 09:19:37;;;;;;;;;;;;;;;30.42;30.57;100692.72;5093426;28;19919;-63
2023/08/14 09:22:02;;;;;;;;;;;;;;;30.51;30.91;100693.56;5077461;28;19917;-63
2023/08/14 09:24:32;;;;;;;;;;;;;;;30.51;31.09;100684.44;5054648;28;19913;-63
2023/08/14 09:26:58;;;;;;;;;;;;;;;30.27;30.92;100691.19;5072908;28;19921;-63
2023/08/14 09:29:23;;;;;;;;;;;;;;;30.40;30.21;100692.22;5072744;28;19916;-64
2023/08/14 09:31:51;;;;;;;;;;;;;;;30.51;30.38;100689.97;5073057;28;20365;-63
2023/08/14 09:34:17;;;;;;;;;;;;;;;30.49;30.16;100709.69;5072536;28;19916;-63
2023/08/14 09:36:43;;;;;;;;;;;;;;;30.44;30.48;100694.06;5072562;28;19939;-62
2023/08/14 09:39:08;;;;;;;;;;;;;;;30.59;30.78;100701.09;5072500;28;20373;-62
2023/08/14 09:41:35;;;;;;;;;;;;;;;30.68;30.33;100703.84;5072636;28;20342;-62
2023/08/14 09:44:00;;;;;;;;;;;;;;;30.67;30.42;100714.13;5072753;28;19912;-63
2023/08/14 09:46:26;;;;;;;;;;;;;;;30.66;30.20;100700.59;5072472;28;19916;-63
2023/08/14 09:48:51;;;;;;;;;;;;;;;30.73;29.72;100708.44;5072658;28;19959;-62
2023/08/14 09:51:18;;;;;;;;;;;;;;;30.68;29.69;100701.91;5072628;28;19913;-62
2023/08/14 09:53:44;;;;;;;;;;;;;;;30.60;29.01;100702.72;5071922;28;19962;-62
2023/08/14 09:56:10;;;;;;;;;;;;;;;30.62;30.37;100700.41;5072569;28;20327;-62
2023/08/14 09:58:35;;;;;;;;;;;;;;;30.90;29.30;100694.59;5072869;28;20284;-62
2023/08/14 10:01:01;;;;;;;;;;;;;;;30.74;28.62;100694.25;5072469;28;19919;-62
2023/08/14 10:03:27;;;;;;;;;;;;;;;30.88;29.83;100700.44;5075133;28;19920;-62
2023/08/14 10:05:52;;;;;;;;;;;;;;;30.92;29.32;100699.84;5072845;28;20349;-62
2023/08/14 10:08:18;;;;;;;;;;;;;;;30.63;30.45;100707.63;5072432;28;20332;-62
2023/08/14 10:10:43;;;;;;;;;;;;;;;30.80;29.45;100711.56;5054599;28;19912;-62
2023/08/14 10:13:09;;;;;;;;;;;;;;;31.12;29.06;100712.25;5072757;28;20028;-62
2023/08/14 10:15:37;;;;;;;;;;;;;;;31.05;29.46;100710.78;5072638;28;19919;-62
2023/08/14 10:18:22;;;;;;;;;;;;;;;31.04;28.98;100722.22;5072556;28;19913;-62
2023/08/14 10:20:48;;;;;;;;;;;;;;;30.93;28.67;100718.13;5072307;28;19916;-62
2023/08/14 10:23:14;;;;;;;;;;;;;;;31.00;29.77;100712.88;5072829;28;19939;-62
2023/08/14 10:25:40;;;;;;;;;;;;;;;30.95;28.87;100713.88;5072600;28;19916;-62
2023/08/14 10:28:07;;;;;;;;;;;;;;;31.41;29.06;100722.69;5072612;28;19924;-62
2023/08/14 10:30:34;;;;;;;;;;;;;;;31.40;28.51;100721.84;5054578;28;19919;-62
2023/08/14 10:33:00;;;;;;;;;;;;;;;31.30;28.85;100732.50;5072168;28;19912;-62
2023/08/14 10:35:26;;;;;;;;;;;;;;;31.53;27.95;100731.16;5072252;28;19916;-63
2023/08/14 10:37:52;;;;;;;;;;;;;;;31.58;28.39;100727.41;5072710;28;19912;-63
2023/08/14 10:40:21;;;;;;;;;;;;;;;31.98;28.28;100727.13;5072351;28;19912;-63
2023/08/14 10:42:55;;;;;;;;;;;;;;;31.98;28.17;100719.63;5076059;28;19912;-63
2023/08/14 10:45:22;;;;;;;;;;;;;;;32.17;28.40;100719.25;5075858;28;20438;-63
2023/08/14 10:47:50;;;;;;;;;;;;;;;32.18;27.97;100722.84;5076129;28;19921;-62
2023/08/14 10:50:25;;;;;;;;;;;;;;;31.95;27.37;100723.06;5075328;28;19977;-62
2023/08/14 10:52:52;;;;;;;;;;;;;;;31.83;27.75;100726.53;5075369;28;20385;-63
2023/08/14 10:55:22;;;;;;;;;;;;;;;31.75;28.42;100723.78;5074800;28;19912;-63
2023/08/14 10:57:47;;;;;;;;;;;;;;;31.73;27.56;100726.88;5075708;28;19912;-63
2023/08/14 11:00:23;;;;;;;;;;;;;;;31.81;27.97;100725.22;5075921;28;19938;-62
2023/08/14 11:03:07;;;;;;;;;;;;;;;31.62;27.20;100722.84;5089351;28;19921;-62
2023/08/14 11:05:36;;;;;;;;;;;;;;;31.53;27.90;100727.59;5077735;28;19912;-62
2023/08/14 11:08:02;;;;;;;;;;;;;;;31.35;28.05;100732.31;5096053;28;20003;-63
2023/08/14 11:10:27;;;;;;;;;;;;;;;31.13;27.67;100722.19;5096149;28;20031;-63
2023/08/14 11:12:53;;;;;;;;;;;;;;;31.28;27.94;100730.03;5075071;28;19930;-63
2023/08/14 11:15:20;;;;;;;;;;;;;;;30.84;27.90;100732.75;5075594;28;19917;-63
2023/08/14 11:17:46;;;;;;;;;;;;;;;31.28;28.65;100738.38;5075725;28;19913;-63
2023/08/14 11:20:12;;;;;;;;;;;;;;;31.47;27.42;100743.59;5075630;28;19912;-63
2023/08/14 11:22:37;;;;;;;;;;;;;;;31.36;28.26;100736.72;5075605;28;20379;-63
2023/08/14 11:25:02;;;;;;;;;;;;;;;31.52;28.32;100737.06;5075447;28;19916;-63
2023/08/14 11:27:28;;;;;;;;;;;;;;;31.55;28.30;100725.28;5075426;28;19919;-63
2023/08/14 11:29:53;;;;;;;;;;;;;;;31.62;28.03;100731.97;5074848;28;19967;-63
2023/08/14 11:32:18;;;;;;;;;;;;;;;32.06;28.50;100729.13;5074743;28;19919;-63
2023/08/14 11:34:44;;;;;;;;;;;;;;;32.15;27.32;100732.66;5075075;28;19936;-63
2023/08/14 11:37:09;;;;;;;;;;;;;;;32.19;27.09;100739.19;5074847;28;19995;-63
2023/08/14 11:39:34;;;;;;;;;;;;;;;32.15;26.94;100738.22;5074851;28;20058;-63
2023/08/14 11:42:03;;;;;;;;;;;;;;;32.42;27.37;100736.13;5075053;28;19919;-63
2023/08/14 11:44:28;;;;;;;;;;;;;;;32.55;27.28;100734.25;5075234;28;19916;-63
2023/08/14 11:46:54;;;;;;;;;;;;;;;32.53;27.14;100731.00;5074771;28;19923;-63
2023/08/14 11:49:19;;;;;;;;;;;;;;;32.53;26.87;100731.81;5074812;28;19944;-63
2023/08/14 11:51:45;;;;;;;;;;;;;;;32.46;26.58;100730.72;5075155;28;19965;-63
2023/08/14 11:54:10;;;;;;;;;;;;;;;32.39;27.07;100732.06;5074958;28;20347;-63
2023/08/14 11:56:37;;;;;;;;;;;;;;;32.52;27.45;100734.91;5075596;28;19912;-63
2023/08/14 11:59:03;;;;;;;;;;;;;;;32.51;26.15;100741.66;5075355;28;19912;-63
2023/08/14 12:01:28;;;;;;;;;;;;;;;32.38;26.37;100752.66;5078273;28;20504;-63
2023/08/14 12:03:54;;;;;;;;;;;;;;;32.41;27.04;100753.94;5094964;28;19920;-63
2023/08/14 12:06:20;;;;;;;;;;;;;;;32.25;26.95;100748.16;5095268;28;19912;-63
2023/08/14 12:08:45;;;;;;;;;;;;;;;31.97;26.71;100754.09;5094647;28;20387;-63
2023/08/14 12:11:17;;;;;;;;;;;;;;;32.00;26.80;100744.28;5094393;28;19923;-63
2023/08/14 12:13:52;;;;;;;;;;;;;;;31.63;27.76;100755.84;5083135;28;20010;-63
2023/08/14 12:16:20;;;;;;;;;;;;;;;31.72;27.75;100755.78;5074264;28;19912;-63
2023/08/14 12:18:46;;;;;;;;;;;;;;;31.69;28.02;100750.13;5074409;28;19912;-63
2023/08/14 12:21:12;;;;;;;;;;;;;;;31.80;28.36;100748.63;5074316;28;19939;-63
2023/08/14 12:23:42;;;;;;;;;;;;;;;31.68;28.58;100754.81;5074581;28;19995;-64
2023/08/14 12:26:08;;;;;;;;;;;;;;;31.70;28.33;100740.63;5056556;28;19912;-63
2023/08/14 12:28:33;;;;;;;;;;;;;;;31.71;28.32;100739.47;5073906;28;20308;-64
2023/08/14 12:30:58;;;;;;;;;;;;;;;31.63;28.71;100738.34;5074347;28;19935;-63